sensor_id;sensor_type;location;lat;lon;timestamp;P1;durP1;ratioP1;P2;durP2;ratioP2
12151;SDS011;6139;51.274;7.128;2023-10-13T00:00:15;13.75;;;10.65;;
12151;SDS011;6139;51.274;7.128;2023-10-13T00:01:26;13.15;;;10.73;;
12151;SDS011;6139;51.274;7.128;2023-10-13T00:02:28;14.45;;;10.25;;
12151;SDS011;6139;51.274;7.128;2023-10-13T00:03:47;13.75;;;10.20;;
12151;SDS011;6139;51.274;7.128;2023-10-13T00:05:08;13.10;;;10.05;;
12151;SDS011;6139;51.274;7.128;2023-10-13T00:06:28;14.15;;;10.07;;
12151;SDS011;6139;51.274;7.128;2023-10-13T00:07:48;12.25;;;10.43;;
12151;SDS011;6139;51.274;7.128;2023-10-13T00:09:09;12.68;;;10.02;;
12151;SDS011;6139;51.274;7.128;2023-10-13T00:10:33;13.73;;;9.80;;
12151;SDS011;6139;51.274;7.128;2023-10-13T00:11:34;14.48;;;10.63;;
12151;SDS011;6139;51.274;7.128;2023-10-13T00:12:36;14.48;;;10.18;;
12151;SDS011;6139;51.274;7.128;2023-10-13T00:13:38;12.52;;;9.77;;
12151;SDS011;6139;51.274;7.128;2023-10-13T00:14:50;11.65;;;9.57;;
12151;SDS011;6139;51.274;7.128;2023-10-13T00:15:51;11.73;;;10.13;;
12151;SDS011;6139;51.274;7.128;2023-10-13T00:16:58;13.63;;;9.65;;
12151;SDS011;6139;51.274;7.128;2023-10-13T00:18:04;13.88;;;10.57;;
12151;SDS011;6139;51.274;7.128;2023-10-13T00:19:12;12.52;;;9.70;;
12151;SDS011;6139;51.274;7.128;2023-10-13T00:20:14;11.05;;;9.57;;
12151;SDS011;6139;51.274;7.128;2023-10-13T00:21:17;13.95;;;9.85;;
12151;SDS011;6139;51.274;7.128;2023-10-13T00:22:31;11.88;;;9.55;;
12151;SDS011;6139;51.274;7.128;2023-10-13T00:23:34;14.45;;;9.68;;
12151;SDS011;6139;51.274;7.128;2023-10-13T00:24:38;10.63;;;9.02;;
12151;SDS011;6139;51.274;7.128;2023-10-13T00:25:43;10.25;;;9.13;;
12151;SDS011;6139;51.274;7.128;2023-10-13T00:26:50;10.18;;;9.07;;
12151;SDS011;6139;51.274;7.128;2023-10-13T00:27:54;10.68;;;9.55;;
12151;SDS011;6139;51.274;7.128;2023-10-13T00:28:56;10.95;;;9.13;;
12151;SDS011;6139;51.274;7.128;2023-10-13T00:30:16;11.88;;;9.35;;
12151;SDS011;6139;51.274;7.128;2023-10-13T00:31:22;13.05;;;9.30;;
12151;SDS011;6139;51.274;7.128;2023-10-13T00:32:26;10.98;;;8.85;;
12151;SDS011;6139;51.274;7.128;2023-10-13T00:33:27;11.23;;;8.57;;
12151;SDS011;6139;51.274;7.128;2023-10-13T00:34:32;11.15;;;9.35;;
12151;SDS011;6139;51.274;7.128;2023-10-13T00:35:37;11.75;;;9.30;;
12151;SDS011;6139;51.274;7.128;2023-10-13T00:36:42;12.07;;;9.43;;
12151;SDS011;6139;51.274;7.128;2023-10-13T00:37:48;14.27;;;9.68;;
12151;SDS011;6139;51.274;7.128;2023-10-13T00:38:53;12.18;;;9.60;;
12151;SDS011;6139;51.274;7.128;2023-10-13T00:39:58;10.90;;;9.38;;
12151;SDS011;6139;51.274;7.128;2023-10-13T00:41:01;11.25;;;8.68;;
12151;SDS011;6139;51.274;7.128;2023-10-13T00:42:13;9.98;;;8.73;;
12151;SDS011;6139;51.274;7.128;2023-10-13T00:43:34;10.55;;;8.65;;
12151;SDS011;6139;51.274;7.128;2023-10-13T00:44:45;11.15;;;8.20;;
12151;SDS011;6139;51.274;7.128;2023-10-13T00:45:50;10.50;;;8.52;;
12151;SDS011;6139;51.274;7.128;2023-10-13T00:46:55;12.18;;;8.85;;
12151;SDS011;6139;51.274;7.128;2023-10-13T00:47:57;11.00;;;9.48;;
12151;SDS011;6139;51.274;7.128;2023-10-13T00:49:01;12.50;;;9.68;;
12151;SDS011;6139;51.274;7.128;2023-10-13T00:50:05;12.23;;;9.05;;
12151;SDS011;6139;51.274;7.128;2023-10-13T00:51:11;11.43;;;9.30;;
12151;SDS011;6139;51.274;7.128;2023-10-13T00:52:33;10.90;;;8.38;;
12151;SDS011;6139;51.274;7.128;2023-10-13T00:53:37;10.90;;;8.70;;
12151;SDS011;6139;51.274;7.128;2023-10-13T00:54:40;9.77;;;8.50;;
12151;SDS011;6139;51.274;7.128;2023-10-13T00:55:43;10.40;;;8.93;;
12151;SDS011;6139;51.274;7.128;2023-10-13T00:56:45;11.15;;;8.73;;
12151;SDS011;6139;51.274;7.128;2023-10-13T00:57:51;11.25;;;8.52;;
12151;SDS011;6139;51.274;7.128;2023-10-13T00:58:55;11.25;;;8.57;;
12151;SDS011;6139;51.274;7.128;2023-10-13T00:59:58;11.05;;;8.73;;
12151;SDS011;6139;51.274;7.128;2023-10-13T01:01:12;9.63;;;8.23;;
12151;SDS011;6139;51.274;7.128;2023-10-13T01:02:22;9.68;;;8.10;;
12151;SDS011;6139;51.274;7.128;2023-10-13T01:03:38;9.88;;;8.10;;
12151;SDS011;6139;51.274;7.128;2023-10-13T01:04:39;11.20;;;7.95;;
12151;SDS011;6139;51.274;7.128;2023-10-13T01:05:41;10.73;;;8.10;;
12151;SDS011;6139;51.274;7.128;2023-10-13T01:06:43;10.95;;;8.02;;
12151;SDS011;6139;51.274;7.128;2023-10-13T01:07:46;11.15;;;8.57;;
12151;SDS011;6139;51.274;7.128;2023-10-13T01:08:57;9.05;;;8.07;;
12151;SDS011;6139;51.274;7.128;2023-10-13T01:10:11;12.93;;;8.40;;
12151;SDS011;6139;51.274;7.128;2023-10-13T01:11:15;10.48;;;8.27;;
12151;SDS011;6139;51.274;7.128;2023-10-13T01:12:16;12.98;;;8.93;;
12151;SDS011;6139;51.274;7.128;2023-10-13T01:13:18;10.02;;;9.00;;
12151;SDS011;6139;51.274;7.128;2023-10-13T01:14:21;13.40;;;8.75;;
12151;SDS011;6139;51.274;7.128;2023-10-13T01:15:23;11.13;;;8.07;;
12151;SDS011;6139;51.274;7.128;2023-10-13T01:16:30;12.73;;;8.43;;
12151;SDS011;6139;51.274;7.128;2023-10-13T01:17:31;10.18;;;8.65;;
12151;SDS011;6139;51.274;7.128;2023-10-13T01:18:32;10.02;;;8.40;;
12151;SDS011;6139;51.274;7.128;2023-10-13T01:19:39;9.48;;;8.48;;
12151;SDS011;6139;51.274;7.128;2023-10-13T01:20:43;10.25;;;8.32;;
12151;SDS011;6139;51.274;7.128;2023-10-13T01:21:52;9.98;;;8.27;;
12151;SDS011;6139;51.274;7.128;2023-10-13T01:22:57;14.15;;;8.93;;
12151;SDS011;6139;51.274;7.128;2023-10-13T01:24:03;9.85;;;8.25;;
12151;SDS011;6139;51.274;7.128;2023-10-13T01:25:08;11.93;;;8.45;;
12151;SDS011;6139;51.274;7.128;2023-10-13T01:26:13;12.52;;;8.52;;
12151;SDS011;6139;51.274;7.128;2023-10-13T01:27:21;9.85;;;8.38;;
12151;SDS011;6139;51.274;7.128;2023-10-13T01:28:25;11.95;;;8.15;;
12151;SDS011;6139;51.274;7.128;2023-10-13T01:29:26;11.32;;;8.52;;
12151;SDS011;6139;51.274;7.128;2023-10-13T01:30:29;10.50;;;8.20;;
12151;SDS011;6139;51.274;7.128;2023-10-13T01:31:30;9.40;;;7.72;;
12151;SDS011;6139;51.274;7.128;2023-10-13T01:32:37;11.70;;;8.15;;
12151;SDS011;6139;51.274;7.128;2023-10-13T01:33:41;10.68;;;8.02;;
12151;SDS011;6139;51.274;7.128;2023-10-13T01:34:43;11.30;;;8.52;;
12151;SDS011;6139;51.274;7.128;2023-10-13T01:35:46;11.52;;;8.10;;
12151;SDS011;6139;51.274;7.128;2023-10-13T01:36:48;8.57;;;7.60;;
12151;SDS011;6139;51.274;7.128;2023-10-13T01:37:51;9.32;;;7.90;;
12151;SDS011;6139;51.274;7.128;2023-10-13T01:38:52;10.60;;;8.40;;
12151;SDS011;6139;51.274;7.128;2023-10-13T01:39:55;9.38;;;7.90;;
12151;SDS011;6139;51.274;7.128;2023-10-13T01:40:57;12.75;;;8.73;;
12151;SDS011;6139;51.274;7.128;2023-10-13T01:41:59;9.73;;;8.18;;
12151;SDS011;6139;51.274;7.128;2023-10-13T01:43:01;9.20;;;8.27;;
12151;SDS011;6139;51.274;7.128;2023-10-13T01:44:04;9.90;;;8.20;;
12151;SDS011;6139;51.274;7.128;2023-10-13T01:45:08;10.32;;;8.32;;
12151;SDS011;6139;51.274;7.128;2023-10-13T01:46:10;9.95;;;8.00;;
12151;SDS011;6139;51.274;7.128;2023-10-13T01:47:13;9.88;;;8.15;;
12151;SDS011;6139;51.274;7.128;2023-10-13T01:48:16;12.07;;;8.50;;
12151;SDS011;6139;51.274;7.128;2023-10-13T01:49:22;10.98;;;8.00;;
12151;SDS011;6139;51.274;7.128;2023-10-13T01:50:23;9.32;;;7.68;;
12151;SDS011;6139;51.274;7.128;2023-10-13T01:51:29;10.25;;;7.55;;
12151;SDS011;6139;51.274;7.128;2023-10-13T01:52:31;10.25;;;7.82;;
12151;SDS011;6139;51.274;7.128;2023-10-13T01:53:32;9.48;;;7.90;;
12151;SDS011;6139;51.274;7.128;2023-10-13T01:54:33;11.48;;;8.13;;
12151;SDS011;6139;51.274;7.128;2023-10-13T01:55:36;11.55;;;7.88;;
12151;SDS011;6139;51.274;7.128;2023-10-13T01:56:43;8.35;;;7.30;;
12151;SDS011;6139;51.274;7.128;2023-10-13T01:57:44;10.75;;;7.78;;
12151;SDS011;6139;51.274;7.128;2023-10-13T01:58:48;10.85;;;8.20;;
12151;SDS011;6139;51.274;7.128;2023-10-13T01:59:50;9.20;;;7.40;;
12151;SDS011;6139;51.274;7.128;2023-10-13T02:00:52;9.02;;;7.70;;
12151;SDS011;6139;51.274;7.128;2023-10-13T02:01:53;8.57;;;7.72;;
12151;SDS011;6139;51.274;7.128;2023-10-13T02:02:58;8.75;;;7.85;;
12151;SDS011;6139;51.274;7.128;2023-10-13T02:04:02;8.43;;;7.57;;
12151;SDS011;6139;51.274;7.128;2023-10-13T02:05:04;9.23;;;7.65;;
12151;SDS011;6139;51.274;7.128;2023-10-13T02:06:07;10.73;;;7.90;;
12151;SDS011;6139;51.274;7.128;2023-10-13T02:07:11;9.40;;;7.32;;
12151;SDS011;6139;51.274;7.128;2023-10-13T02:08:16;10.30;;;8.27;;
12151;SDS011;6139;51.274;7.128;2023-10-13T02:09:23;8.80;;;7.65;;
12151;SDS011;6139;51.274;7.128;2023-10-13T02:10:26;9.25;;;7.90;;
12151;SDS011;6139;51.274;7.128;2023-10-13T02:11:29;8.70;;;7.80;;
12151;SDS011;6139;51.274;7.128;2023-10-13T02:12:31;9.48;;;7.55;;
12151;SDS011;6139;51.274;7.128;2023-10-13T02:13:42;10.10;;;8.27;;
12151;SDS011;6139;51.274;7.128;2023-10-13T02:14:49;11.27;;;7.53;;
12151;SDS011;6139;51.274;7.128;2023-10-13T02:15:52;10.43;;;7.90;;
12151;SDS011;6139;51.274;7.128;2023-10-13T02:16:56;7.78;;;6.90;;
12151;SDS011;6139;51.274;7.128;2023-10-13T02:18:13;8.73;;;7.68;;
12151;SDS011;6139;51.274;7.128;2023-10-13T02:19:21;11.07;;;7.28;;
12151;SDS011;6139;51.274;7.128;2023-10-13T02:20:22;10.85;;;7.85;;
12151;SDS011;6139;51.274;7.128;2023-10-13T02:21:28;8.75;;;7.35;;
12151;SDS011;6139;51.274;7.128;2023-10-13T02:22:32;11.55;;;7.47;;
12151;SDS011;6139;51.274;7.128;2023-10-13T02:23:33;10.05;;;7.75;;
12151;SDS011;6139;51.274;7.128;2023-10-13T02:24:43;11.13;;;7.57;;
12151;SDS011;6139;51.274;7.128;2023-10-13T02:25:46;8.70;;;7.22;;
12151;SDS011;6139;51.274;7.128;2023-10-13T02:26:48;9.07;;;7.68;;
12151;SDS011;6139;51.274;7.128;2023-10-13T02:27:50;9.32;;;7.72;;
12151;SDS011;6139;51.274;7.128;2023-10-13T02:28:59;9.07;;;7.15;;
12151;SDS011;6139;51.274;7.128;2023-10-13T02:30:04;9.35;;;8.00;;
12151;SDS011;6139;51.274;7.128;2023-10-13T02:31:07;9.90;;;7.85;;
12151;SDS011;6139;51.274;7.128;2023-10-13T02:32:08;7.93;;;7.18;;
12151;SDS011;6139;51.274;7.128;2023-10-13T02:33:15;9.95;;;7.57;;
12151;SDS011;6139;51.274;7.128;2023-10-13T02:34:21;8.95;;;8.02;;
12151;SDS011;6139;51.274;7.128;2023-10-13T02:35:23;8.90;;;7.80;;
12151;SDS011;6139;51.274;7.128;2023-10-13T02:36:31;8.65;;;7.75;;
12151;SDS011;6139;51.274;7.128;2023-10-13T02:37:38;10.20;;;8.10;;
12151;SDS011;6139;51.274;7.128;2023-10-13T02:38:39;12.52;;;8.60;;
12151;SDS011;6139;51.274;7.128;2023-10-13T02:39:46;10.55;;;8.18;;
12151;SDS011;6139;51.274;7.128;2023-10-13T02:40:48;10.18;;;7.75;;
12151;SDS011;6139;51.274;7.128;2023-10-13T02:41:51;8.55;;;7.65;;
12151;SDS011;6139;51.274;7.128;2023-10-13T02:42:52;10.65;;;7.90;;
12151;SDS011;6139;51.274;7.128;2023-10-13T02:43:54;10.57;;;7.93;;
12151;SDS011;6139;51.274;7.128;2023-10-13T02:44:57;11.32;;;8.10;;
12151;SDS011;6139;51.274;7.128;2023-10-13T02:45:58;9.13;;;8.23;;
12151;SDS011;6139;51.274;7.128;2023-10-13T02:47:00;10.48;;;7.75;;
12151;SDS011;6139;51.274;7.128;2023-10-13T02:48:06;10.35;;;8.45;;
12151;SDS011;6139;51.274;7.128;2023-10-13T02:49:11;11.23;;;7.80;;
12151;SDS011;6139;51.274;7.128;2023-10-13T02:50:12;11.18;;;7.80;;
12151;SDS011;6139;51.274;7.128;2023-10-13T02:51:13;9.88;;;8.55;;
12151;SDS011;6139;51.274;7.128;2023-10-13T02:52:18;9.35;;;8.25;;
12151;SDS011;6139;51.274;7.128;2023-10-13T02:53:20;10.40;;;8.10;;
12151;SDS011;6139;51.274;7.128;2023-10-13T02:54:21;9.68;;;8.10;;
12151;SDS011;6139;51.274;7.128;2023-10-13T02:55:30;10.15;;;7.88;;
12151;SDS011;6139;51.274;7.128;2023-10-13T02:56:32;10.65;;;9.02;;
12151;SDS011;6139;51.274;7.128;2023-10-13T02:57:34;10.32;;;8.70;;
12151;SDS011;6139;51.274;7.128;2023-10-13T02:58:35;12.55;;;8.55;;
12151;SDS011;6139;51.274;7.128;2023-10-13T02:59:44;9.25;;;8.25;;
12151;SDS011;6139;51.274;7.128;2023-10-13T03:00:46;10.52;;;8.55;;
12151;SDS011;6139;51.274;7.128;2023-10-13T03:01:47;12.43;;;8.55;;
12151;SDS011;6139;51.274;7.128;2023-10-13T03:02:53;9.98;;;8.90;;
12151;SDS011;6139;51.274;7.128;2023-10-13T03:03:58;12.40;;;8.80;;
12151;SDS011;6139;51.274;7.128;2023-10-13T03:04:59;12.23;;;9.02;;
12151;SDS011;6139;51.274;7.128;2023-10-13T03:06:00;10.90;;;9.15;;
12151;SDS011;6139;51.274;7.128;2023-10-13T03:07:02;12.05;;;9.05;;
12151;SDS011;6139;51.274;7.128;2023-10-13T03:08:05;12.10;;;8.82;;
12151;SDS011;6139;51.274;7.128;2023-10-13T03:09:07;10.35;;;8.57;;
12151;SDS011;6139;51.274;7.128;2023-10-13T03:10:15;9.57;;;8.50;;
12151;SDS011;6139;51.274;7.128;2023-10-13T03:11:19;9.35;;;8.38;;
12151;SDS011;6139;51.274;7.128;2023-10-13T03:12:21;11.15;;;9.00;;
12151;SDS011;6139;51.274;7.128;2023-10-13T03:13:26;10.68;;;9.50;;
12151;SDS011;6139;51.274;7.128;2023-10-13T03:14:27;10.82;;;8.45;;
12151;SDS011;6139;51.274;7.128;2023-10-13T03:15:31;10.73;;;8.30;;
12151;SDS011;6139;51.274;7.128;2023-10-13T03:16:35;9.25;;;8.35;;
12151;SDS011;6139;51.274;7.128;2023-10-13T03:17:36;11.07;;;8.52;;
12151;SDS011;6139;51.274;7.128;2023-10-13T03:18:43;10.13;;;8.38;;
12151;SDS011;6139;51.274;7.128;2023-10-13T03:19:56;10.20;;;8.82;;
12151;SDS011;6139;51.274;7.128;2023-10-13T03:20:57;10.75;;;9.10;;
12151;SDS011;6139;51.274;7.128;2023-10-13T03:22:02;9.48;;;8.57;;
12151;SDS011;6139;51.274;7.128;2023-10-13T03:23:09;9.63;;;8.63;;
12151;SDS011;6139;51.274;7.128;2023-10-13T03:24:10;9.43;;;8.52;;
12151;SDS011;6139;51.274;7.128;2023-10-13T03:25:14;9.68;;;8.68;;
12151;SDS011;6139;51.274;7.128;2023-10-13T03:26:25;10.32;;;8.75;;
12151;SDS011;6139;51.274;7.128;2023-10-13T03:27:26;10.10;;;8.60;;
12151;SDS011;6139;51.274;7.128;2023-10-13T03:28:41;10.48;;;9.27;;
12151;SDS011;6139;51.274;7.128;2023-10-13T03:29:47;10.43;;;9.32;;
12151;SDS011;6139;51.274;7.128;2023-10-13T03:30:48;11.00;;;8.93;;
12151;SDS011;6139;51.274;7.128;2023-10-13T03:31:53;10.13;;;8.52;;
12151;SDS011;6139;51.274;7.128;2023-10-13T03:33:07;9.45;;;8.23;;
12151;SDS011;6139;51.274;7.128;2023-10-13T03:34:11;10.18;;;8.32;;
12151;SDS011;6139;51.274;7.128;2023-10-13T03:35:15;11.80;;;9.43;;
12151;SDS011;6139;51.274;7.128;2023-10-13T03:36:24;10.68;;;8.63;;
12151;SDS011;6139;51.274;7.128;2023-10-13T03:37:56;10.52;;;9.07;;
12151;SDS011;6139;51.274;7.128;2023-10-13T03:38:57;10.55;;;9.07;;
12151;SDS011;6139;51.274;7.128;2023-10-13T03:39:58;12.38;;;9.02;;
12151;SDS011;6139;51.274;7.128;2023-10-13T03:41:00;12.05;;;9.07;;
12151;SDS011;6139;51.274;7.128;2023-10-13T03:42:08;10.38;;;9.00;;
12151;SDS011;6139;51.274;7.128;2023-10-13T03:43:12;10.40;;;9.18;;
12151;SDS011;6139;51.274;7.128;2023-10-13T03:44:14;10.85;;;8.85;;
12151;SDS011;6139;51.274;7.128;2023-10-13T03:45:21;11.93;;;9.50;;
12151;SDS011;6139;51.274;7.128;2023-10-13T03:46:22;10.40;;;9.38;;
12151;SDS011;6139;51.274;7.128;2023-10-13T03:47:23;11.13;;;9.65;;
12151;SDS011;6139;51.274;7.128;2023-10-13T03:48:27;14.05;;;10.07;;
12151;SDS011;6139;51.274;7.128;2023-10-13T03:49:28;12.60;;;9.77;;
12151;SDS011;6139;51.274;7.128;2023-10-13T03:50:31;14.65;;;9.43;;
12151;SDS011;6139;51.274;7.128;2023-10-13T03:51:32;10.63;;;9.20;;
12151;SDS011;6139;51.274;7.128;2023-10-13T03:52:34;12.15;;;9.23;;
12151;SDS011;6139;51.274;7.128;2023-10-13T03:53:37;10.30;;;9.00;;
12151;SDS011;6139;51.274;7.128;2023-10-13T03:54:52;11.23;;;9.10;;
12151;SDS011;6139;51.274;7.128;2023-10-13T03:55:54;10.57;;;9.52;;
12151;SDS011;6139;51.274;7.128;2023-10-13T03:57:08;13.13;;;8.60;;
12151;SDS011;6139;51.274;7.128;2023-10-13T03:58:12;10.43;;;9.43;;
12151;SDS011;6139;51.274;7.128;2023-10-13T03:59:15;12.60;;;9.70;;
12151;SDS011;6139;51.274;7.128;2023-10-13T04:00:19;9.90;;;8.88;;
12151;SDS011;6139;51.274;7.128;2023-10-13T04:01:24;10.95;;;9.30;;
12151;SDS011;6139;51.274;7.128;2023-10-13T04:02:31;9.40;;;8.40;;
12151;SDS011;6139;51.274;7.128;2023-10-13T04:03:32;18.45;;;9.43;;
12151;SDS011;6139;51.274;7.128;2023-10-13T04:04:35;11.00;;;9.30;;
12151;SDS011;6139;51.274;7.128;2023-10-13T04:05:42;10.30;;;9.05;;
12151;SDS011;6139;51.274;7.128;2023-10-13T04:06:47;11.18;;;8.40;;
12151;SDS011;6139;51.274;7.128;2023-10-13T04:07:51;12.07;;;9.48;;
12151;SDS011;6139;51.274;7.128;2023-10-13T04:09:07;11.63;;;9.88;;
12151;SDS011;6139;51.274;7.128;2023-10-13T04:10:27;11.52;;;8.80;;
12151;SDS011;6139;51.274;7.128;2023-10-13T04:11:46;14.93;;;8.95;;
12151;SDS011;6139;51.274;7.128;2023-10-13T04:13:21;10.73;;;8.48;;
12151;SDS011;6139;51.274;7.128;2023-10-13T04:14:41;11.65;;;8.68;;
12151;SDS011;6139;51.274;7.128;2023-10-13T04:16:16;12.48;;;8.43;;
12151;SDS011;6139;51.274;7.128;2023-10-13T04:17:32;12.63;;;9.35;;
12151;SDS011;6139;51.274;7.128;2023-10-13T04:18:40;10.30;;;8.85;;
12151;SDS011;6139;51.274;7.128;2023-10-13T04:19:59;10.95;;;8.98;;
12151;SDS011;6139;51.274;7.128;2023-10-13T04:21:19;11.55;;;9.07;;
12151;SDS011;6139;51.274;7.128;2023-10-13T04:22:40;14.20;;;8.90;;
12151;SDS011;6139;51.274;7.128;2023-10-13T04:24:00;11.70;;;9.23;;
12151;SDS011;6139;51.274;7.128;2023-10-13T04:25:38;14.32;;;9.02;;
12151;SDS011;6139;51.274;7.128;2023-10-13T04:26:52;11.60;;;9.02;;
12151;SDS011;6139;51.274;7.128;2023-10-13T04:28:15;13.50;;;9.82;;
12151;SDS011;6139;51.274;7.128;2023-10-13T04:29:34;14.20;;;8.80;;
12151;SDS011;6139;51.274;7.128;2023-10-13T04:30:47;13.05;;;8.70;;
12151;SDS011;6139;51.274;7.128;2023-10-13T04:32:00;12.07;;;9.43;;
12151;SDS011;6139;51.274;7.128;2023-10-13T04:33:03;11.50;;;9.55;;
12151;SDS011;6139;51.274;7.128;2023-10-13T04:34:27;12.32;;;8.88;;
12151;SDS011;6139;51.274;7.128;2023-10-13T04:35:37;14.10;;;10.00;;
12151;SDS011;6139;51.274;7.128;2023-10-13T04:36:47;11.48;;;9.23;;
12151;SDS011;6139;51.274;7.128;2023-10-13T04:37:57;13.70;;;9.13;;
12151;SDS011;6139;51.274;7.128;2023-10-13T04:39:01;11.32;;;9.55;;
12151;SDS011;6139;51.274;7.128;2023-10-13T04:40:09;10.40;;;8.57;;
12151;SDS011;6139;51.274;7.128;2023-10-13T04:41:12;11.77;;;9.18;;
12151;SDS011;6139;51.274;7.128;2023-10-13T04:42:22;11.88;;;9.95;;
12151;SDS011;6139;51.274;7.128;2023-10-13T04:43:39;12.65;;;9.32;;
12151;SDS011;6139;51.274;7.128;2023-10-13T04:45:09;10.35;;;9.32;;
12151;SDS011;6139;51.274;7.128;2023-10-13T04:46:37;11.13;;;8.85;;
12151;SDS011;6139;51.274;7.128;2023-10-13T04:47:54;12.32;;;9.77;;
12151;SDS011;6139;51.274;7.128;2023-10-13T04:48:58;10.13;;;9.13;;
12151;SDS011;6139;51.274;7.128;2023-10-13T04:50:01;11.50;;;9.40;;
12151;SDS011;6139;51.274;7.128;2023-10-13T04:51:21;12.50;;;9.43;;
12151;SDS011;6139;51.274;7.128;2023-10-13T04:52:50;12.00;;;9.32;;
12151;SDS011;6139;51.274;7.128;2023-10-13T04:54:02;11.85;;;9.70;;
12151;SDS011;6139;51.274;7.128;2023-10-13T04:55:11;10.63;;;9.07;;
12151;SDS011;6139;51.274;7.128;2023-10-13T04:56:37;12.38;;;9.75;;
12151;SDS011;6139;51.274;7.128;2023-10-13T04:57:53;12.48;;;9.85;;
12151;SDS011;6139;51.274;7.128;2023-10-13T04:59:11;12.05;;;9.63;;
12151;SDS011;6139;51.274;7.128;2023-10-13T05:00:19;12.27;;;9.52;;
12151;SDS011;6139;51.274;7.128;2023-10-13T05:01:57;11.00;;;9.50;;
12151;SDS011;6139;51.274;7.128;2023-10-13T05:03:16;14.90;;;10.43;;
12151;SDS011;6139;51.274;7.128;2023-10-13T05:04:32;11.95;;;9.88;;
12151;SDS011;6139;51.274;7.128;2023-10-13T05:05:59;11.13;;;9.63;;
12151;SDS011;6139;51.274;7.128;2023-10-13T05:07:27;13.13;;;9.77;;
12151;SDS011;6139;51.274;7.128;2023-10-13T05:08:47;11.23;;;9.35;;
12151;SDS011;6139;51.274;7.128;2023-10-13T05:10:26;12.02;;;9.45;;
12151;SDS011;6139;51.274;7.128;2023-10-13T05:12:04;12.40;;;9.55;;
12151;SDS011;6139;51.274;7.128;2023-10-13T05:13:42;12.02;;;9.30;;
12151;SDS011;6139;51.274;7.128;2023-10-13T05:15:03;12.43;;;9.75;;
12151;SDS011;6139;51.274;7.128;2023-10-13T05:16:24;13.15;;;9.60;;
12151;SDS011;6139;51.274;7.128;2023-10-13T05:17:43;13.93;;;10.02;;
12151;SDS011;6139;51.274;7.128;2023-10-13T05:19:03;12.30;;;8.77;;
12151;SDS011;6139;51.274;7.128;2023-10-13T05:20:23;12.82;;;9.27;;
12151;SDS011;6139;51.274;7.128;2023-10-13T05:21:42;11.32;;;9.20;;
12151;SDS011;6139;51.274;7.128;2023-10-13T05:23:02;12.63;;;8.85;;
12151;SDS011;6139;51.274;7.128;2023-10-13T05:24:21;10.50;;;8.82;;
12151;SDS011;6139;51.274;7.128;2023-10-13T05:25:41;13.43;;;9.10;;
12151;SDS011;6139;51.274;7.128;2023-10-13T05:27:01;11.45;;;8.93;;
12151;SDS011;6139;51.274;7.128;2023-10-13T05:28:39;12.35;;;9.20;;
12151;SDS011;6139;51.274;7.128;2023-10-13T05:30:17;12.50;;;9.27;;
12151;SDS011;6139;51.274;7.128;2023-10-13T05:31:57;11.57;;;8.43;;
12151;SDS011;6139;51.274;7.128;2023-10-13T05:33:19;10.50;;;9.05;;
12151;SDS011;6139;51.274;7.128;2023-10-13T05:34:57;12.25;;;9.00;;
12151;SDS011;6139;51.274;7.128;2023-10-13T05:36:35;10.77;;;8.45;;
12151;SDS011;6139;51.274;7.128;2023-10-13T05:38:14;12.35;;;8.98;;
12151;SDS011;6139;51.274;7.128;2023-10-13T05:39:52;10.93;;;9.05;;
12151;SDS011;6139;51.274;7.128;2023-10-13T05:41:11;10.73;;;8.52;;
12151;SDS011;6139;51.274;7.128;2023-10-13T05:42:31;12.88;;;9.18;;
12151;SDS011;6139;51.274;7.128;2023-10-13T05:43:50;12.07;;;8.63;;
12151;SDS011;6139;51.274;7.128;2023-10-13T05:45:10;11.00;;;8.82;;
12151;SDS011;6139;51.274;7.128;2023-10-13T05:46:37;11.52;;;9.02;;
12151;SDS011;6139;51.274;7.128;2023-10-13T05:47:51;12.38;;;9.13;;
12151;SDS011;6139;51.274;7.128;2023-10-13T05:49:11;12.07;;;8.93;;
12151;SDS011;6139;51.274;7.128;2023-10-13T05:50:41;12.30;;;8.70;;
12151;SDS011;6139;51.274;7.128;2023-10-13T05:51:57;11.85;;;8.80;;
12151;SDS011;6139;51.274;7.128;2023-10-13T05:53:07;11.38;;;7.97;;
12151;SDS011;6139;51.274;7.128;2023-10-13T05:54:26;9.45;;;7.65;;
12151;SDS011;6139;51.274;7.128;2023-10-13T05:55:59;12.25;;;8.52;;
12151;SDS011;6139;51.274;7.128;2023-10-13T05:57:19;10.55;;;8.25;;
12151;SDS011;6139;51.274;7.128;2023-10-13T05:58:35;10.10;;;8.73;;
12151;SDS011;6139;51.274;7.128;2023-10-13T05:59:55;12.43;;;8.65;;
12151;SDS011;6139;51.274;7.128;2023-10-13T06:01:15;12.35;;;9.15;;
12151;SDS011;6139;51.274;7.128;2023-10-13T06:02:34;11.07;;;8.30;;
12151;SDS011;6139;51.274;7.128;2023-10-13T06:03:56;13.43;;;8.82;;
12151;SDS011;6139;51.274;7.128;2023-10-13T06:05:15;15.18;;;8.77;;
12151;SDS011;6139;51.274;7.128;2023-10-13T06:06:35;12.43;;;8.32;;
12151;SDS011;6139;51.274;7.128;2023-10-13T06:07:55;10.13;;;8.45;;
12151;SDS011;6139;51.274;7.128;2023-10-13T06:09:15;13.98;;;8.38;;
12151;SDS011;6139;51.274;7.128;2023-10-13T06:10:35;14.32;;;8.50;;
12151;SDS011;6139;51.274;7.128;2023-10-13T06:11:55;11.10;;;8.38;;
12151;SDS011;6139;51.274;7.128;2023-10-13T06:13:14;10.32;;;8.15;;
12151;SDS011;6139;51.274;7.128;2023-10-13T06:14:34;9.95;;;7.90;;
12151;SDS011;6139;51.274;7.128;2023-10-13T06:15:54;9.75;;;7.82;;
12151;SDS011;6139;51.274;7.128;2023-10-13T06:17:13;11.10;;;8.13;;
12151;SDS011;6139;51.274;7.128;2023-10-13T06:18:33;12.68;;;8.75;;
12151;SDS011;6139;51.274;7.128;2023-10-13T06:19:54;11.95;;;8.32;;
12151;SDS011;6139;51.274;7.128;2023-10-13T06:21:14;11.00;;;8.30;;
12151;SDS011;6139;51.274;7.128;2023-10-13T06:22:33;11.48;;;7.88;;
12151;SDS011;6139;51.274;7.128;2023-10-13T06:23:53;11.73;;;8.43;;
12151;SDS011;6139;51.274;7.128;2023-10-13T06:25:13;12.38;;;8.98;;
12151;SDS011;6139;51.274;7.128;2023-10-13T06:26:32;11.50;;;8.80;;
12151;SDS011;6139;51.274;7.128;2023-10-13T06:27:52;13.30;;;8.90;;
12151;SDS011;6139;51.274;7.128;2023-10-13T06:29:12;10.32;;;8.32;;
12151;SDS011;6139;51.274;7.128;2023-10-13T06:30:20;10.18;;;8.30;;
12151;SDS011;6139;51.274;7.128;2023-10-13T06:31:21;10.05;;;9.00;;
12151;SDS011;6139;51.274;7.128;2023-10-13T06:32:23;12.32;;;9.02;;
12151;SDS011;6139;51.274;7.128;2023-10-13T06:33:26;13.93;;;8.90;;
12151;SDS011;6139;51.274;7.128;2023-10-13T06:34:30;9.73;;;8.45;;
12151;SDS011;6139;51.274;7.128;2023-10-13T06:35:39;11.82;;;8.50;;
12151;SDS011;6139;51.274;7.128;2023-10-13T06:36:41;12.60;;;8.60;;
12151;SDS011;6139;51.274;7.128;2023-10-13T06:37:42;14.45;;;9.38;;
12151;SDS011;6139;51.274;7.128;2023-10-13T06:38:43;12.20;;;8.80;;
12151;SDS011;6139;51.274;7.128;2023-10-13T06:39:53;11.13;;;9.15;;
12151;SDS011;6139;51.274;7.128;2023-10-13T06:40:56;13.00;;;9.43;;
12151;SDS011;6139;51.274;7.128;2023-10-13T06:41:58;10.98;;;8.55;;
12151;SDS011;6139;51.274;7.128;2023-10-13T06:43:00;10.65;;;8.85;;
12151;SDS011;6139;51.274;7.128;2023-10-13T06:44:14;9.23;;;8.18;;
12151;SDS011;6139;51.274;7.128;2023-10-13T06:45:16;12.90;;;8.85;;
12151;SDS011;6139;51.274;7.128;2023-10-13T06:46:18;11.82;;;8.48;;
12151;SDS011;6139;51.274;7.128;2023-10-13T06:47:23;10.32;;;7.80;;
12151;SDS011;6139;51.274;7.128;2023-10-13T06:48:25;13.70;;;8.10;;
12151;SDS011;6139;51.274;7.128;2023-10-13T06:49:27;10.20;;;8.43;;
12151;SDS011;6139;51.274;7.128;2023-10-13T06:50:29;11.75;;;8.98;;
12151;SDS011;6139;51.274;7.128;2023-10-13T06:51:39;13.82;;;8.45;;
12151;SDS011;6139;51.274;7.128;2023-10-13T06:52:41;12.07;;;8.80;;
12151;SDS011;6139;51.274;7.128;2023-10-13T06:53:43;11.93;;;8.35;;
12151;SDS011;6139;51.274;7.128;2023-10-13T06:54:49;13.25;;;8.63;;
12151;SDS011;6139;51.274;7.128;2023-10-13T06:55:51;13.32;;;8.38;;
12151;SDS011;6139;51.274;7.128;2023-10-13T06:56:59;9.25;;;7.75;;
12151;SDS011;6139;51.274;7.128;2023-10-13T06:58:01;11.73;;;8.02;;
12151;SDS011;6139;51.274;7.128;2023-10-13T06:59:02;11.77;;;8.32;;
12151;SDS011;6139;51.274;7.128;2023-10-13T07:00:05;10.32;;;7.90;;